Time;durP1;ratioP1;P1;durP2;ratioP2;P2;SDS_P1;SDS_P2;PMS_P1;PMS_P2;Temp;Humidity;BMP_temperature;BMP_pressure;BME280_temperature;BME280_humidity;BME280_pressure;Samples;Min_cycle;Max_cycle;Signal;HPM_P1;HPM_P2
2024/04/24 00:00:47;;;;;;;17.08;12.23;;;3.20;99.90;;;;;;5319297;26;20017;-66
2024/04/24 00:03:17;;;;;;;17.27;11.60;;;3.20;99.90;;;;;;5322149;26;20008;-66
2024/04/24 00:05:45;;;;;;;17.45;12.20;;;3.20;99.90;;;;;;5310053;26;20389;-66
2024/04/24 00:08:16;;;;;;;18.08;11.95;;;3.20;99.90;;;;;;5324281;26;20033;-66
2024/04/24 00:10:44;;;;;;;16.90;10.90;;;3.20;99.90;;;;;;5323720;26;20551;-66
2024/04/24 00:13:15;;;;;;;15.25;10.82;;;3.10;99.90;;;;;;5319101;26;20005;-66
2024/04/24 00:15:42;;;;;;;16.83;11.27;;;3.10;99.90;;;;;;5320049;26;20014;-66
2024/04/24 00:18:09;;;;;;;18.25;12.05;;;3.10;99.90;;;;;;5323726;26;20006;-66
2024/04/24 00:20:36;;;;;;;16.25;11.80;;;3.20;99.90;;;;;;5328179;26;20004;-66
2024/04/24 00:23:03;;;;;;;15.70;11.00;;;3.20;99.90;;;;;;5320769;26;20084;-66
2024/04/24 00:25:30;;;;;;;17.98;11.32;;;3.20;99.90;;;;;;5322226;26;20001;-66
2024/04/24 00:27:57;;;;;;;17.77;12.18;;;3.20;99.90;;;;;;5326280;26;20082;-66
2024/04/24 00:30:24;;;;;;;19.17;11.55;;;3.20;99.90;;;;;;5318810;26;20005;-66
2024/04/24 00:32:51;;;;;;;16.50;11.38;;;3.20;99.90;;;;;;5322006;26;20005;-66
2024/04/24 00:35:18;;;;;;;19.00;11.25;;;3.20;99.90;;;;;;5328304;26;20000;-66
2024/04/24 00:37:45;;;;;;;15.88;10.98;;;3.20;99.90;;;;;;5320165;26;20020;-66
2024/04/24 00:40:12;;;;;;;15.95;11.40;;;3.20;99.90;;;;;;5312416;26;20001;-66
2024/04/24 00:42:39;;;;;;;16.60;11.65;;;3.20;99.90;;;;;;5315309;26;20013;-65
2024/04/24 00:45:06;;;;;;;18.42;11.35;;;3.10;99.90;;;;;;5334391;26;20001;-66
2024/04/24 00:47:35;;;;;;;16.52;11.82;;;3.20;99.90;;;;;;5329135;26;20009;-66
2024/04/24 00:50:02;;;;;;;16.42;11.40;;;3.20;99.90;;;;;;5327288;26;20001;-66
2024/04/24 00:52:29;;;;;;;18.58;10.73;;;3.20;99.90;;;;;;5324041;26;20788;-66
2024/04/24 00:54:56;;;;;;;14.25;10.43;;;3.20;99.90;;;;;;5293477;26;19997;-65
2024/04/24 00:57:24;;;;;;;16.50;11.38;;;3.20;99.90;;;;;;5319237;26;20016;-65
2024/04/24 00:59:51;;;;;;;16.58;11.65;;;3.20;99.90;;;;;;5325007;26;20016;-65
2024/04/24 01:02:18;;;;;;;14.00;10.45;;;3.30;99.90;;;;;;5318054;26;20077;-65
2024/04/24 01:04:44;;;;;;;13.15;9.80;;;3.30;99.90;;;;;;5320099;26;20006;-65
2024/04/24 01:07:12;;;;;;;15.48;10.93;;;3.30;99.90;;;;;;5314464;26;20047;-65
2024/04/24 01:09:43;;;;;;;16.70;11.43;;;3.30;99.90;;;;;;5373293;26;20006;-65
2024/04/24 01:12:11;;;;;;;15.13;11.65;;;3.30;99.90;;;;;;5317813;26;20009;-65
2024/04/24 01:14:42;;;;;;;17.13;10.65;;;3.30;99.90;;;;;;5313214;26;20026;-66
2024/04/24 01:17:15;;;;;;;15.50;10.73;;;3.30;99.90;;;;;;5322952;26;20051;-66
2024/04/24 01:19:48;;;;;;;15.73;10.00;;;3.30;99.90;;;;;;5326816;26;20012;-66
2024/04/24 01:22:33;;;;;;;14.20;10.07;;;3.30;99.90;;;;;;5316391;26;20002;-66
2024/04/24 01:25:17;;;;;;;15.07;10.13;;;3.30;99.90;;;;;;5317178;26;20013;-66
2024/04/24 01:27:45;;;;;;;17.05;11.68;;;3.30;99.90;;;;;;5329148;26;20005;-66
2024/04/24 01:30:12;;;;;;;19.42;11.23;;;3.30;99.90;;;;;;5327771;26;20009;-66
2024/04/24 01:32:39;;;;;;;14.98;10.68;;;3.30;99.90;;;;;;5311477;26;20020;-66
2024/04/24 01:35:06;;;;;;;16.50;10.80;;;3.30;99.90;;;;;;5322567;26;20819;-66
2024/04/24 01:37:33;;;;;;;14.27;10.68;;;3.30;99.90;;;;;;5318132;26;20076;-66
2024/04/24 01:40:00;;;;;;;16.95;11.77;;;3.30;99.90;;;;;;5321784;26;20009;-66
2024/04/24 01:42:31;;;;;;;14.40;10.43;;;3.20;99.90;;;;;;5321793;26;20009;-66
2024/04/24 01:44:58;;;;;;;15.88;10.98;;;3.20;99.90;;;;;;5323416;26;20457;-66
2024/04/24 01:47:25;;;;;;;16.98;11.23;;;3.30;99.90;;;;;;5324494;26;20815;-66
2024/04/24 01:49:52;;;;;;;16.52;10.70;;;3.30;99.90;;;;;;5328065;26;20496;-66
2024/04/24 01:52:19;;;;;;;17.58;11.13;;;3.30;99.90;;;;;;5324610;26;20006;-66
2024/04/24 01:54:46;;;;;;;14.75;9.68;;;3.30;99.90;;;;;;5320189;26;20010;-66
2024/04/24 01:57:13;;;;;;;17.42;10.65;;;3.30;99.90;;;;;;5333531;26;20045;-66
2024/04/24 01:59:40;;;;;;;13.32;9.18;;;3.30;99.90;;;;;;5323529;26;20021;-66
2024/04/24 02:02:07;;;;;;;14.73;10.15;;;3.30;99.90;;;;;;5280495;26;20016;-65
2024/04/24 02:04:34;;;;;;;14.40;9.95;;;3.40;99.90;;;;;;5315580;26;20020;-66
2024/04/24 02:07:01;;;;;;;14.95;9.52;;;3.40;99.90;;;;;;5318957;26;20001;-66
2024/04/24 02:09:28;;;;;;;12.10;9.15;;;3.40;99.90;;;;;;5312616;26;20038;-66
2024/04/24 02:11:55;;;;;;;14.73;9.40;;;3.40;99.90;;;;;;5320538;26;20452;-66
2024/04/24 02:14:21;;;;;;;14.13;9.95;;;3.40;99.90;;;;;;5325061;26;20046;-66
2024/04/24 02:16:48;;;;;;;13.60;9.95;;;3.40;99.90;;;;;;5317426;26;20017;-66
2024/04/24 02:19:15;;;;;;;15.45;9.90;;;3.40;99.90;;;;;;5325317;26;20466;-66
2024/04/24 02:21:42;;;;;;;15.80;10.30;;;3.40;99.90;;;;;;5317350;26;20470;-66
2024/04/24 02:24:09;;;;;;;17.20;10.93;;;3.30;99.90;;;;;;5320046;26;20005;-66
2024/04/24 02:26:36;;;;;;;15.70;11.00;;;3.30;99.90;;;;;;5319682;26;20006;-66
2024/04/24 02:29:03;;;;;;;15.98;10.65;;;3.30;99.90;;;;;;5326498;26;20013;-65
2024/04/24 02:31:30;;;;;;;16.30;10.52;;;3.20;99.90;;;;;;5318248;26;20487;-66
2024/04/24 02:33:56;;;;;;;15.15;10.38;;;3.30;99.90;;;;;;5317202;26;20013;-66
2024/04/24 02:36:23;;;;;;;17.05;12.35;;;3.30;99.90;;;;;;5319461;26;20108;-66
2024/04/24 02:38:50;;;;;;;17.20;11.18;;;3.30;99.90;;;;;;5323530;26;20374;-66
2024/04/24 02:41:17;;;;;;;14.40;10.65;;;3.30;99.90;;;;;;5312279;26;20009;-66
2024/04/24 02:43:44;;;;;;;14.68;10.75;;;3.30;99.90;;;;;;5309934;26;20006;-66
2024/04/24 02:46:10;;;;;;;18.50;12.50;;;3.20;99.90;;;;;;5310851;26;20041;-66
2024/04/24 02:48:42;;;;;;;16.45;11.30;;;3.20;99.90;;;;;;5307578;26;20528;-65
2024/04/24 02:51:09;;;;;;;17.80;11.18;;;3.20;99.90;;;;;;5317348;26;20029;-65
2024/04/24 02:53:36;;;;;;;16.88;11.18;;;3.20;99.90;;;;;;5321894;26;20056;-65
2024/04/24 02:56:03;;;;;;;17.77;11.93;;;3.20;99.90;;;;;;5311040;26;20021;-65
2024/04/24 02:58:30;;;;;;;19.00;12.68;;;3.20;99.90;;;;;;5320118;26;20029;-66
2024/04/24 03:01:02;;;;;;;16.48;11.70;;;3.20;99.90;;;;;;5323416;26;20086;-66
2024/04/24 03:03:29;;;;;;;17.80;12.60;;;3.10;99.90;;;;;;5322714;26;20037;-65
2024/04/24 03:05:56;;;;;;;17.10;12.35;;;3.10;99.90;;;;;;5324173;26;20001;-65
2024/04/24 03:08:24;;;;;;;18.35;13.00;;;3.10;99.90;;;;;;5318360;26;20009;-65
2024/04/24 03:10:50;;;;;;;20.38;12.43;;;3.10;99.90;;;;;;5318318;26;20009;-65
2024/04/24 03:13:17;;;;;;;20.40;12.88;;;3.00;99.90;;;;;;5331771;26;20641;-66
2024/04/24 03:15:44;;;;;;;18.92;13.02;;;3.10;99.90;;;;;;5320849;26;20001;-66
2024/04/24 03:18:11;;;;;;;17.58;12.82;;;3.00;99.90;;;;;;5316029;26;20551;-65
2024/04/24 03:20:38;;;;;;;18.02;13.32;;;3.00;99.90;;;;;;5311072;26;20033;-65
2024/04/24 03:23:05;;;;;;;16.52;11.45;;;3.00;99.90;;;;;;5308390;26;20006;-65
2024/04/24 03:25:32;;;;;;;19.25;13.00;;;3.00;99.90;;;;;;5309099;26;20006;-65
2024/04/24 03:27:58;;;;;;;19.08;12.55;;;3.00;99.90;;;;;;5319504;26;20501;-65
2024/04/24 03:30:25;;;;;;;16.63;12.02;;;3.00;99.90;;;;;;5318568;26;20045;-66
2024/04/24 03:32:52;;;;;;;16.13;12.35;;;3.00;99.90;;;;;;5317637;26;20470;-64
2024/04/24 03:35:19;;;;;;;18.05;12.73;;;3.00;99.90;;;;;;5323583;26;20053;-65
2024/04/24 03:37:51;;;;;;;20.42;12.35;;;3.00;99.90;;;;;;5317228;26;20020;-66
2024/04/24 03:40:18;;;;;;;19.48;13.18;;;3.00;99.90;;;;;;5319164;26;20002;-66
2024/04/24 03:42:45;;;;;;;20.73;13.40;;;3.00;99.90;;;;;;5322542;26;20001;-65
2024/04/24 03:45:12;;;;;;;20.38;13.63;;;3.00;99.90;;;;;;5320834;26;20488;-66
2024/04/24 03:47:44;;;;;;;19.38;12.52;;;2.90;99.90;;;;;;5314064;26;20036;-66
2024/04/24 03:50:16;;;;;;;21.42;14.57;;;2.90;99.90;;;;;;5375232;26;20020;-66
2024/04/24 03:52:43;;;;;;;18.60;13.68;;;2.80;99.90;;;;;;5318529;26;20058;-66
2024/04/24 03:55:10;;;;;;;21.35;13.60;;;2.70;99.90;;;;;;5318500;26;20016;-66
2024/04/24 03:57:42;;;;;;;21.17;13.85;;;2.70;99.90;;;;;;5308475;26;20018;-66
2024/04/24 04:00:09;;;;;;;20.38;13.07;;;2.60;99.90;;;;;;5321639;26;20002;-66
2024/04/24 04:02:39;;;;;;;20.65;13.18;;;2.60;99.90;;;;;;5319577;26;20020;-66
2024/04/24 04:05:06;;;;;;;19.08;13.18;;;2.50;99.90;;;;;;5311922;26;20076;-66
2024/04/24 04:07:33;;;;;;;19.60;13.68;;;2.50;99.90;;;;;;5317728;26;20013;-66
2024/04/24 04:10:05;;;;;;;21.40;14.18;;;2.50;99.90;;;;;;5319793;26;20006;-66
2024/04/24 04:12:32;;;;;;;21.35;16.23;;;2.50;99.90;;;;;;5319275;26;20009;-66
2024/04/24 04:14:59;;;;;;;23.33;15.00;;;2.40;99.90;;;;;;5316718;26;20001;-66
2024/04/24 04:17:31;;;;;;;22.50;14.63;;;2.40;99.90;;;;;;5309173;26;20017;-66
2024/04/24 04:19:58;;;;;;;20.40;13.75;;;2.40;99.90;;;;;;5316291;26;20021;-66
2024/04/24 04:22:25;;;;;;;25.17;16.02;;;2.40;99.90;;;;;;5319541;26;20020;-66
2024/04/24 04:24:57;;;;;;;21.83;14.18;;;2.30;99.90;;;;;;5319731;26;20392;-66
2024/04/24 04:27:24;;;;;;;21.85;14.27;;;2.30;99.90;;;;;;5314649;26;20024;-66
2024/04/24 04:29:51;;;;;;;25.33;16.20;;;2.30;99.90;;;;;;5312911;26;20006;-66
2024/04/24 04:32:18;;;;;;;22.63;13.98;;;2.30;99.90;;;;;;5314206;26;19997;-66
2024/04/24 04:34:45;;;;;;;21.08;14.43;;;2.30;99.90;;;;;;5316308;26;20017;-65
2024/04/24 04:37:16;;;;;;;23.77;14.88;;;2.30;99.90;;;;;;5311103;26;20006;-66
2024/04/24 04:39:44;;;;;;;24.70;14.38;;;2.30;99.90;;;;;;5304016;26;20466;-66
2024/04/24 04:42:11;;;;;;;24.33;14.77;;;2.30;99.90;;;;;;5316184;26;20016;-65
2024/04/24 04:44:38;;;;;;;22.92;14.88;;;2.30;99.90;;;;;;5315936;26;20056;-66
2024/04/24 04:47:05;;;;;;;24.75;15.30;;;2.20;99.90;;;;;;5321343;26;20020;-66
2024/04/24 04:49:32;;;;;;;25.88;15.40;;;2.20;99.90;;;;;;5315828;26;20041;-64
2024/04/24 04:51:59;;;;;;;25.15;15.02;;;2.30;99.90;;;;;;5313988;26;20012;-65
2024/04/24 04:54:26;;;;;;;24.25;15.48;;;2.30;99.90;;;;;;5312348;26;20679;-65
2024/04/24 04:56:52;;;;;;;23.42;16.08;;;2.30;99.90;;;;;;5317984;26;20001;-66
2024/04/24 04:59:19;;;;;;;23.55;14.40;;;2.30;99.90;;;;;;5323617;26;20009;-65
2024/04/24 05:01:51;;;;;;;27.45;15.35;;;2.40;99.90;;;;;;5309652;26;20024;-65
2024/04/24 05:04:18;;;;;;;23.38;16.25;;;2.40;99.90;;;;;;5323765;26;20075;-66
2024/04/24 05:06:45;;;;;;;24.15;14.63;;;2.50;99.90;;;;;;5312862;26;20370;-66
2024/04/24 05:09:12;;;;;;;24.45;16.27;;;2.50;99.90;;;;;;5313192;26;20037;-70
2024/04/24 05:11:45;;;;;;;23.23;14.45;;;2.60;99.90;;;;;;5312816;26;20779;-66
2024/04/24 05:14:13;;;;;;;24.33;14.30;;;2.60;99.90;;;;;;5312153;26;20010;-66
2024/04/24 05:16:40;;;;;;;22.75;14.25;;;2.60;99.90;;;;;;5302300;26;19998;-66
2024/04/24 05:19:08;;;;;;;23.23;14.57;;;2.60;99.90;;;;;;5309539;26;20010;-66
2024/04/24 05:21:40;;;;;;;23.17;15.02;;;2.70;99.90;;;;;;5310026;26;20481;-65
2024/04/24 05:24:07;;;;;;;22.52;15.18;;;2.70;99.90;;;;;;5309942;26;20061;-65
2024/04/24 05:29:19;;;;;;;22.08;14.27;;;2.70;99.90;;;;;;5315894;26;20005;-66
2024/04/24 05:31:46;;;;;;;24.02;14.77;;;2.70;99.90;;;;;;5318864;26;20045;-65
2024/04/24 05:34:13;;;;;;;21.35;13.85;;;2.80;99.90;;;;;;5322799;26;20012;-66
2024/04/24 05:36:40;;;;;;;20.17;13.25;;;2.80;99.90;;;;;;5318866;26;20008;-65
2024/04/24 05:39:12;;;;;;;21.90;13.38;;;2.80;99.90;;;;;;5312398;26;20025;-65
2024/04/24 05:41:41;;;;;;;21.42;15.02;;;2.80;99.90;;;;;;5288535;26;20013;-65
2024/04/24 05:44:12;;;;;;;20.15;13.93;;;2.70;99.90;;;;;;5308419;26;20057;-65
2024/04/24 05:46:42;;;;;;;20.40;13.25;;;2.60;99.90;;;;;;5325679;26;20005;-65
2024/04/24 05:49:15;;;;;;;19.90;14.17;;;2.70;99.90;;;;;;5311211;26;20006;-65
2024/04/24 05:51:42;;;;;;;20.27;13.25;;;2.70;99.90;;;;;;5309743;26;20366;-65
2024/04/24 05:54:09;;;;;;;19.63;13.75;;;2.80;99.90;;;;;;5310752;26;20005;-64
2024/04/24 05:56:39;;;;;;;19.85;13.43;;;2.90;99.90;;;;;;5304370;26;20056;-65
2024/04/24 05:59:06;;;;;;;17.38;11.88;;;3.00;99.90;;;;;;5277776;26;20002;-65
2024/04/24 06:01:33;;;;;;;17.48;12.38;;;3.10;99.90;;;;;;5305620;26;20088;-66
2024/04/24 06:04:00;;;;;;;17.20;11.70;;;3.10;99.90;;;;;;5311452;26;20005;-66
2024/04/24 06:06:27;;;;;;;18.38;10.25;;;3.20;99.90;;;;;;5321909;26;20001;-66
2024/04/24 06:08:54;;;;;;;16.67;11.10;;;3.30;99.90;;;;;;5329442;26;20021;-65
2024/04/24 06:11:22;;;;;;;17.25;11.80;;;3.30;99.90;;;;;;5315689;26;20001;-65
2024/04/24 06:13:49;;;;;;;15.40;10.98;;;3.40;99.90;;;;;;5319523;26;20083;-65
2024/04/24 06:16:16;;;;;;;15.80;11.27;;;3.50;99.90;;;;;;5317860;26;20082;-65
2024/04/24 06:18:43;;;;;;;15.25;9.90;;;3.60;99.90;;;;;;5319870;26;20091;-65
2024/04/24 06:21:10;;;;;;;15.38;11.25;;;3.70;99.90;;;;;;5312522;26;20041;-65
2024/04/24 06:23:37;;;;;;;16.60;11.23;;;3.80;99.90;;;;;;5328777;26;20016;-65
2024/04/24 06:26:03;;;;;;;18.50;11.73;;;3.90;99.90;;;;;;5316243;26;20001;-65
2024/04/24 06:28:30;;;;;;;16.58;11.02;;;4.00;99.90;;;;;;5316059;26;20001;-65
2024/04/24 06:30:57;;;;;;;16.52;10.05;;;4.00;99.90;;;;;;5311124;26;20548;-65
2024/04/24 06:33:29;;;;;;;14.43;10.07;;;4.10;99.90;;;;;;5304970;26;20381;-67
2024/04/24 06:35:56;;;;;;;16.30;11.15;;;4.10;99.90;;;;;;5320223;26;20393;-65
2024/04/24 06:38:23;;;;;;;19.42;11.50;;;4.10;99.90;;;;;;5307976;26;20009;-65
2024/04/24 06:40:50;;;;;;;15.75;10.10;;;4.20;99.90;;;;;;5317136;26;20006;-65
2024/04/24 06:43:19;;;;;;;17.45;11.73;;;4.20;99.90;;;;;;5313179;26;20021;-65
2024/04/24 06:45:46;;;;;;;16.00;10.82;;;4.30;99.90;;;;;;5317429;26;20021;-66
2024/04/24 06:48:13;;;;;;;17.42;11.38;;;4.30;99.90;;;;;;5316501;26;20009;-66
2024/04/24 06:50:41;;;;;;;15.80;11.20;;;4.30;99.90;;;;;;5317986;26;20016;-65
2024/04/24 06:53:07;;;;;;;17.77;11.93;;;4.40;99.90;;;;;;5314139;26;20348;-65
2024/04/24 06:55:36;;;;;;;14.93;10.57;;;4.30;99.90;;;;;;5324134;26;20010;-66
2024/04/24 06:58:03;;;;;;;15.13;10.80;;;4.40;99.90;;;;;;5322946;26;20068;-66
2024/04/24 07:00:30;;;;;;;14.73;10.85;;;4.50;99.90;;;;;;5318844;26;20033;-66
2024/04/24 07:03:05;;;;;;;14.23;9.80;;;4.60;99.90;;;;;;5316259;26;20024;-65
2024/04/24 07:05:32;;;;;;;13.25;10.82;;;4.70;99.90;;;;;;5307962;26;20018;-66
2024/04/24 07:08:07;;;;;;;14.82;10.30;;;4.70;99.90;;;;;;5365767;26;20005;-65
2024/04/24 07:10:34;;;;;;;13.98;9.68;;;4.90;99.90;;;;;;5323776;26;20005;-66
2024/04/24 07:13:02;;;;;;;14.20;10.13;;;5.00;99.90;;;;;;5312146;26;20002;-66
2024/04/24 07:15:29;;;;;;;10.90;8.20;;;5.00;99.90;;;;;;5328949;26;20005;-66
2024/04/24 07:17:56;;;;;;;10.25;7.95;;;5.00;99.90;;;;;;5310669;26;20005;-66
2024/04/24 07:20:23;;;;;;;12.10;8.82;;;4.90;99.90;;;;;;5313256;26;20503;-66
2024/04/24 07:22:50;;;;;;;11.50;8.57;;;5.00;99.90;;;;;;5292041;26;20481;-66
2024/04/24 07:25:17;;;;;;;10.90;8.70;;;5.10;99.90;;;;;;5324383;26;20005;-66
2024/04/24 07:27:49;;;;;;;11.25;8.73;;;5.20;99.90;;;;;;5320127;26;20020;-66
2024/04/24 07:30:16;;;;;;;13.45;10.40;;;5.20;99.90;;;;;;5327962;26;20038;-66
2024/04/24 07:32:43;;;;;;;11.13;8.23;;;5.20;99.90;;;;;;5322080;26;20010;-66
2024/04/24 07:35:15;;;;;;;10.35;7.65;;;5.30;99.90;;;;;;5325598;26;20006;-66
2024/04/24 07:37:42;;;;;;;10.25;7.25;;;5.40;99.90;;;;;;5329791;26;20019;-66
2024/04/24 07:40:10;;;;;;;12.55;8.55;;;5.50;99.90;;;;;;5315519;26;20010;-66
2024/04/24 07:42:37;;;;;;;12.45;8.50;;;5.60;99.90;;;;;;5324889;26;20018;-66
2024/04/24 07:45:04;;;;;;;10.90;7.20;;;5.70;99.90;;;;;;5324535;26;20042;-66
2024/04/24 07:47:36;;;;;;;9.60;6.82;;;5.70;99.90;;;;;;5314945;26;20478;-65
2024/04/24 07:50:03;;;;;;;14.23;7.32;;;5.60;99.90;;;;;;5309548;26;20037;-66
2024/04/24 07:52:35;;;;;;;11.05;7.28;;;5.70;99.90;;;;;;5312370;26;20354;-66
2024/04/24 07:55:02;;;;;;;10.15;6.25;;;5.80;99.90;;;;;;5321417;26;20022;-66
2024/04/24 07:57:29;;;;;;;9.20;6.90;;;6.00;99.90;;;;;;5320395;26;20005;-66
2024/04/24 07:59:56;;;;;;;10.68;8.18;;;6.00;99.90;;;;;;5325922;26;20001;-66
2024/04/24 08:02:22;;;;;;;13.32;9.30;;;6.10;99.90;;;;;;5318372;26;20467;-66
2024/04/24 08:04:49;;;;;;;11.98;8.10;;;6.10;99.90;;;;;;5325229;26;20816;-65
2024/04/24 08:07:16;;;;;;;10.73;7.80;;;6.20;99.90;;;;;;5321157;26;20079;-66
2024/04/24 08:09:45;;;;;;;12.15;8.02;;;6.30;99.90;;;;;;5322137;26;20072;-66
2024/04/24 08:12:12;;;;;;;12.43;8.70;;;6.40;99.90;;;;;;5322599;26;20020;-65
2024/04/24 08:14:42;;;;;;;12.32;8.82;;;6.40;99.90;;;;;;5318938;26;20009;-66
2024/04/24 08:17:09;;;;;;;11.25;7.95;;;6.60;99.90;;;;;;5322989;26;20180;-66
2024/04/24 08:19:36;;;;;;;10.07;7.15;;;6.60;99.90;;;;;;5322269;26;20009;-66
2024/04/24 08:22:03;;;;;;;9.07;6.63;;;6.70;99.90;;;;;;5321542;26;20012;-66
2024/04/24 08:24:30;;;;;;;8.52;6.20;;;6.80;99.90;;;;;;5353017;26;20015;-66
2024/04/24 08:27:02;;;;;;;8.00;6.25;;;6.80;99.90;;;;;;5303574;26;20005;-65
2024/04/24 08:29:29;;;;;;;9.60;6.22;;;6.80;99.90;;;;;;5325251;26;20037;-66
2024/04/24 08:31:57;;;;;;;10.43;6.07;;;6.90;99.90;;;;;;5310066;26;20002;-66
2024/04/24 08:34:24;;;;;;;9.13;6.53;;;7.00;99.90;;;;;;5317588;26;20009;-66
2024/04/24 08:36:51;;;;;;;7.35;5.45;;;7.10;99.90;;;;;;5320474;26;20080;-66
2024/04/24 08:39:17;;;;;;;9.27;5.63;;;7.30;99.90;;;;;;5315216;26;20006;-66
2024/04/24 08:41:45;;;;;;;5.95;4.93;;;7.40;99.90;;;;;;5320068;26;20006;-65
2024/04/24 08:44:17;;;;;;;8.40;5.50;;;7.40;99.90;;;;;;5324055;26;20010;-66
2024/04/24 08:46:45;;;;;;;8.65;5.32;;;7.30;99.90;;;;;;5305243;26;20354;-66
2024/04/24 08:49:12;;;;;;;9.25;6.40;;;7.20;99.90;;;;;;5318686;26;20055;-66
2024/04/24 08:51:45;;;;;;;9.35;6.28;;;7.10;99.90;;;;;;5313744;26;20078;-66
2024/04/24 08:54:14;;;;;;;9.63;7.10;;;7.00;99.90;;;;;;5280497;26;20472;-65
2024/04/24 08:56:46;;;;;;;6.95;5.70;;;6.90;99.90;;;;;;5311506;26;20521;-65
2024/04/24 08:59:22;;;;;;;8.50;5.70;;;6.90;99.90;;;;;;5316349;26;20030;-66
2024/04/24 09:02:08;;;;;;;7.90;6.35;;;6.90;99.90;;;;;;5312045;26;21087;-65
2024/04/24 09:04:36;;;;;;;8.90;5.22;;;6.90;99.90;;;;;;5317554;26;19997;-65
2024/04/24 09:07:03;;;;;;;7.85;4.72;;;6.90;99.90;;;;;;5325862;26;20006;-65
2024/04/24 09:09:31;;;;;;;6.15;4.38;;;7.00;99.90;;;;;;5318115;26;20075;-65
2024/04/24 09:12:17;;;;;;;5.43;4.40;;;6.90;99.90;;;;;;5317764;26;20466;-66
2024/04/24 09:14:44;;;;;;;6.30;4.45;;;6.90;99.90;;;;;;5313300;26;20032;-65
2024/04/24 09:17:11;;;;;;;5.63;4.32;;;6.90;99.90;;;;;;5316543;26;20005;-66
2024/04/24 09:19:39;;;;;;;5.13;3.70;;;7.10;99.90;;;;;;5319196;26;20001;-65
2024/04/24 09:22:06;;;;;;;3.88;3.47;;;7.50;99.90;;;;;;5326735;26;20023;-65
2024/04/24 09:24:36;;;;;;;5.60;3.55;;;7.50;99.90;;;;;;5314270;26;20738;-66
2024/04/24 09:27:03;;;;;;;5.95;3.90;;;7.40;99.90;;;;;;5320246;26;20046;-65
2024/04/24 09:29:30;;;;;;;5.35;4.05;;;7.30;99.90;;;;;;5318105;26;20001;-65
2024/04/24 09:31:57;;;;;;;5.47;4.10;;;7.30;99.90;;;;;;5319152;26;20120;-65
2024/04/24 09:34:27;;;;;;;5.68;4.72;;;7.30;99.90;;;;;;5321094;26;20081;-65
2024/04/24 09:36:56;;;;;;;5.18;3.80;;;7.40;99.90;;;;;;5324186;26;20085;-65
2024/04/24 09:39:24;;;;;;;7.28;4.95;;;7.50;99.90;;;;;;5318228;26;20087;-65
2024/04/24 09:41:51;;;;;;;8.43;4.88;;;7.60;99.90;;;;;;5325355;26;19997;-65
2024/04/24 09:44:28;;;;;;;6.35;4.25;;;7.80;99.90;;;;;;5318367;26;20086;-65
2024/04/24 09:46:55;;;;;;;6.03;3.70;;;8.10;99.90;;;;;;5317678;26;19997;-65
2024/04/24 09:49:26;;;;;;;6.38;4.45;;;8.00;99.90;;;;;;5308701;26;20080;-65
2024/04/24 09:51:59;;;;;;;6.47;4.05;;;8.00;99.90;;;;;;5308320;26;20000;-65
2024/04/24 09:54:26;;;;;;;5.25;4.20;;;8.10;99.90;;;;;;5315905;26;20005;-65
2024/04/24 09:56:56;;;;;;;8.18;4.45;;;8.20;99.90;;;;;;5322368;26;20001;-65
2024/04/24 09:59:35;;;;;;;5.53;3.80;;;8.40;99.90;;;;;;5321791;26;20692;-65
2024/04/24 10:02:04;;;;;;;4.80;3.97;;;8.60;99.90;;;;;;5315195;26;20017;-65
2024/04/24 10:04:33;;;;;;;9.55;4.22;;;8.60;99.90;;;;;;5325226;26;20017;-65
2024/04/24 10:07:03;;;;;;;5.15;4.47;;;8.60;99.90;;;;;;5317167;26;20001;-65
2024/04/24 10:09:33;;;;;;;5.18;4.22;;;8.60;99.90;;;;;;5321544;26;20084;-65
2024/04/24 10:12:11;;;;;;;10.63;6.18;;;8.40;99.90;;;;;;5325910;26;20474;-65
2024/04/24 10:14:46;;;;;;;5.45;4.45;;;8.30;99.90;;;;;;5318436;26;20012;-65
2024/04/24 10:17:14;;;;;;;5.80;3.90;;;8.10;99.90;;;;;;5324415;26;20017;-65
2024/04/24 10:19:43;;;;;;;7.38;4.38;;;8.00;99.90;;;;;;5318717;26;20020;-66
2024/04/24 10:22:10;;;;;;;5.45;4.40;;;8.00;99.90;;;;;;5320892;26;20061;-65
2024/04/24 10:24:38;;;;;;;6.07;4.28;;;8.20;99.90;;;;;;5309347;26;20029;-65
2024/04/24 10:27:06;;;;;;;8.45;4.70;;;8.30;99.90;;;;;;5314389;26;20019;-66
2024/04/24 10:29:35;;;;;;;5.60;4.75;;;8.40;99.90;;;;;;5324613;26;20490;-65
2024/04/24 10:32:09;;;;;;;8.40;5.53;;;8.40;99.90;;;;;;5315766;26;20041;-65
2024/04/24 10:34:36;;;;;;;5.72;5.05;;;8.20;99.90;;;;;;5316760;26;20001;-65
2024/04/24 10:37:03;;;;;;;7.00;5.53;;;8.10;99.90;;;;;;5313427;26;20002;-65
2024/04/24 10:39:40;;;;;;;6.32;4.85;;;8.30;99.90;;;;;;5320855;26;20037;-65
2024/04/24 10:42:07;;;;;;;6.78;5.25;;;8.60;99.90;;;;;;5317035;26;20388;-65
2024/04/24 10:44:36;;;;;;;9.45;5.43;;;8.60;99.90;;;;;;5321932;26;20046;-65
2024/04/24 10:47:08;;;;;;;6.85;4.93;;;8.60;99.90;;;;;;5316226;26;20000;-65
2024/04/24 10:49:51;;;;;;;7.15;5.53;;;8.50;99.90;;;;;;5320105;26;20009;-65
2024/04/24 10:52:18;;;;;;;9.45;6.25;;;8.40;99.90;;;;;;5325456;26;20480;-65
2024/04/24 10:54:45;;;;;;;10.25;6.82;;;8.20;99.90;;;;;;5318218;26;20009;-65
2024/04/24 10:57:12;;;;;;;6.63;5.57;;;8.20;99.90;;;;;;5352572;26;20363;-65
2024/04/24 10:59:44;;;;;;;6.30;5.68;;;8.20;99.90;;;;;;5315284;26;20006;-65
2024/04/24 11:02:17;;;;;;;7.72;5.50;;;8.10;99.90;;;;;;5331827;26;20744;-66
2024/04/24 11:04:44;;;;;;;7.18;5.75;;;8.10;99.90;;;;;;5309482;26;20013;-65
2024/04/24 11:07:14;;;;;;;7.90;6.20;;;8.20;99.90;;;;;;5326660;26;20002;-65
2024/04/24 11:09:43;;;;;;;8.35;6.32;;;8.20;99.90;;;;;;5317871;26;20014;-65
2024/04/24 11:12:10;;;;;;;8.20;5.93;;;8.20;99.90;;;;;;5316958;26;20477;-65
2024/04/24 11:14:41;;;;;;;6.75;5.93;;;8.10;99.90;;;;;;5319943;26;20034;-65
2024/04/24 11:17:08;;;;;;;8.32;5.82;;;8.10;99.90;;;;;;5321555;26;20028;-66
2024/04/24 11:19:35;;;;;;;7.90;5.57;;;8.10;99.90;;;;;;5326390;26;20093;-65
2024/04/24 11:22:02;;;;;;;6.10;4.78;;;8.00;99.90;;;;;;5325054;26;20088;-65
2024/04/24 11:24:29;;;;;;;6.18;4.88;;;8.00;99.90;;;;;;5321088;26;20005;-65
2024/04/24 11:26:56;;;;;;;7.03;5.00;;;8.00;99.90;;;;;;5319011;26;20470;-65
2024/04/24 11:29:26;;;;;;;7.90;6.07;;;8.00;99.90;;;;;;5317609;26;20001;-65
2024/04/24 11:31:55;;;;;;;7.82;5.28;;;8.10;99.90;;;;;;5323422;26;20477;-65
2024/04/24 11:34:22;;;;;;;9.98;5.63;;;8.30;99.90;;;;;;5327525;26;20017;-65
2024/04/24 11:36:50;;;;;;;9.25;6.70;;;8.40;99.90;;;;;;5320431;26;20001;-65
2024/04/24 11:39:17;;;;;;;7.15;5.55;;;8.50;99.90;;;;;;5326662;26;20017;-65
2024/04/24 11:41:49;;;;;;;6.75;4.97;;;8.50;99.90;;;;;;5313629;26;20033;-65
2024/04/24 11:44:16;;;;;;;6.35;5.47;;;8.30;99.90;;;;;;5313707;26;20001;-65
2024/04/24 11:46:46;;;;;;;7.13;5.30;;;8.10;99.90;;;;;;5325152;26;20020;-65
2024/04/24 11:49:17;;;;;;;7.45;5.88;;;8.00;99.90;;;;;;5315996;26;20022;-65
2024/04/24 11:51:44;;;;;;;7.00;5.75;;;8.00;99.90;;;;;;5314390;26;20005;-65
2024/04/24 11:54:13;;;;;;;10.50;5.70;;;8.10;99.90;;;;;;5315365;26;20015;-64
2024/04/24 11:56:44;;;;;;;5.85;5.15;;;8.20;99.90;;;;;;5310997;26;20097;-65
2024/04/24 11:59:17;;;;;;;6.53;5.03;;;8.20;99.90;;;;;;5314225;26;20009;-65
2024/04/24 12:01:44;;;;;;;8.45;5.97;;;8.30;99.90;;;;;;5315924;26;20001;-65
2024/04/24 12:04:11;;;;;;;10.00;6.10;;;8.20;99.90;;;;;;5325184;26;20084;-64
2024/04/24 12:06:42;;;;;;;7.18;5.60;;;8.10;99.90;;;;;;5322994;26;20014;-65
2024/04/24 12:09:10;;;;;;;7.65;5.90;;;7.90;99.90;;;;;;5326995;26;20010;-65
2024/04/24 12:11:42;;;;;;;9.15;5.30;;;8.00;99.90;;;;;;5322812;26;20005;-65
2024/04/24 12:14:13;;;;;;;6.78;5.75;;;8.00;99.90;;;;;;5301021;26;20029;-65
2024/04/24 12:16:41;;;;;;;7.63;6.05;;;8.00;99.90;;;;;;5324018;26;20020;-65
2024/04/24 12:19:08;;;;;;;8.20;6.50;;;8.10;99.90;;;;;;5308091;26;20002;-65
2024/04/24 12:21:35;;;;;;;6.70;5.43;;;8.10;99.90;;;;;;5316271;26;20013;-65
2024/04/24 12:24:02;;;;;;;6.38;5.10;;;8.00;99.90;;;;;;5306614;26;20001;-65
2024/04/24 12:26:30;;;;;;;7.82;5.68;;;8.00;99.90;;;;;;5308482;26;20013;-65
2024/04/24 12:28:57;;;;;;;5.72;4.93;;;7.90;99.90;;;;;;5325542;26;20020;-65
2024/04/24 12:31:24;;;;;;;6.78;5.80;;;7.90;99.90;;;;;;5314240;26;20037;-65
2024/04/24 12:33:50;;;;;;;7.05;6.00;;;7.90;99.90;;;;;;5312732;26;20030;-65
2024/04/24 12:36:17;;;;;;;7.10;5.60;;;7.70;99.90;;;;;;5313099;26;20053;-65
2024/04/24 12:38:44;;;;;;;8.15;5.68;;;7.60;99.90;;;;;;5318030;26;20476;-65
2024/04/24 12:41:16;;;;;;;7.25;5.80;;;7.50;99.90;;;;;;5322524;26;20041;-65
2024/04/24 12:43:48;;;;;;;7.47;5.40;;;7.40;99.90;;;;;;5323521;26;20034;-65
2024/04/24 12:46:15;;;;;;;6.82;5.22;;;7.50;99.90;;;;;;5314188;26;20016;-65
2024/04/24 12:48:42;;;;;;;6.95;4.78;;;7.40;99.90;;;;;;5319836;26;20005;-65
2024/04/24 12:51:13;;;;;;;7.15;4.65;;;7.40;99.90;;;;;;5321466;26;20021;-65
2024/04/24 12:53:40;;;;;;;5.57;4.78;;;7.30;99.90;;;;;;5317898;26;20045;-65